»·PEaware :: N71125 KSBP-KMRY

N71125 :: KSBP-KMRY

FLIGHT INFORMATION

Flight Status: Arrived
Operator: Privately registered:
United States
More flights under this callsign
Pilot: Christian U. (16550)
Aircraft: CESSNA 172 SKYHAWK
(C172)
More flights by this aircraft type
Origin: KSBP San Luis Co Regl
United States
Destination: KMRY Monterey Peninsula
United States
More flights between these airports :: More routes between these airports
Route: +PRB V25 WIGGL
File this flight plan on PilotEdge
Remarks:
Altitude:
(Current/Filed)
8,000ft
Speed:
(Current/Filed)
110kts
Departed: 29-Jul-20 10:12 AM
Arrived: 29-Jul-20 11:35 AM
Distance/Time
Traveled:
100nm/1:23
Distance/Time
To Go:
Arrived

Flight Plot

Page will automatically refresh every two minutes.


Map Options




Map Legend


Flown Route
Filed Route
Departure Airport
Arrival Airport
Navaid (VOR, NDB)
Fix

Horizontal Profiles

Position Reports

Time Latitude Longitude Heading Altitude Ground
Speed
29-Jul-20 10:00 35.238248 -120.639994 308 216ft 0kts
29-Jul-20 10:01 35.238248 -120.639994 308 216ft 0kts
29-Jul-20 10:02 35.238248 -120.639994 308 216ft 0kts
29-Jul-20 10:03 35.238248 -120.639994 308 216ft 0kts
29-Jul-20 10:04 35.238248 -120.639994 308 216ft 0kts
29-Jul-20 10:05 35.238248 -120.639994 308 216ft 0kts
29-Jul-20 10:06 35.238248 -120.639994 308 216ft 0kts
29-Jul-20 10:07 35.238279 -120.640160 255 216ft 2kts
29-Jul-20 10:08 35.237047 -120.638595 124 216ft 18kts
29-Jul-20 10:09 35.233857 -120.632969 124 216ft 17kts
29-Jul-20 10:10 35.232920 -120.632576 218 216ft 10kts
29-Jul-20 10:11 35.241158 -120.647331 303 584ft 77kts
29-Jul-20 10:12 35.252653 -120.669179 303 1338ft 76kts
29-Jul-20 10:13 35.264126 -120.691225 303 2046ft 77kts
29-Jul-20 10:14 35.275636 -120.713487 303 2715ft 77kts
29-Jul-20 10:15 35.287205 -120.735957 303 3389ft 78kts
29-Jul-20 10:16 35.298800 -120.758513 303 4080ft 78kts
29-Jul-20 10:17 35.311183 -120.780352 338 4734ft 77kts
29-Jul-20 10:18 35.331912 -120.778324 10 5347ft 76kts
29-Jul-20 10:19 35.352140 -120.770254 21 5940ft 77kts
29-Jul-20 10:20 35.372312 -120.761154 21 6500ft 77kts
29-Jul-20 10:21 35.392619 -120.752054 20 7024ft 78kts
29-Jul-20 10:22 35.413212 -120.742852 20 7517ft 79kts
29-Jul-20 10:23 35.434077 -120.733536 20 7970ft 81kts
29-Jul-20 10:24 35.459873 -120.721717 22 7987ft 107kts
29-Jul-20 10:25 35.487906 -120.709297 19 7985ft 107kts
29-Jul-20 10:26 35.516163 -120.696975 19 7982ft 108kts
29-Jul-20 10:27 35.544500 -120.684359 19 7981ft 108kts
29-Jul-20 10:28 35.572826 -120.671749 19 7981ft 108kts
29-Jul-20 10:29 35.601194 -120.659092 19 7981ft 108kts
29-Jul-20 10:30 35.629509 -120.646384 19 7981ft 108kts
29-Jul-20 10:31 35.657789 -120.633710 19 7981ft 108kts
29-Jul-20 10:32 35.684892 -120.642097 326 7981ft 108kts
29-Jul-20 10:33 35.709368 -120.663742 323 7981ft 108kts
29-Jul-20 10:34 35.733295 -120.686345 322 7981ft 108kts
29-Jul-20 10:35 35.757058 -120.709238 322 7981ft 108kts
29-Jul-20 10:36 35.780757 -120.732210 322 7981ft 108kts
29-Jul-20 10:37 35.804410 -120.755191 322 7981ft 108kts
29-Jul-20 10:38 35.828098 -120.778234 322 7981ft 108kts
29-Jul-20 10:39 35.851804 -120.801316 322 7981ft 108kts
29-Jul-20 10:40 35.875456 -120.824364 322 7981ft 108kts
29-Jul-20 10:41 35.899075 -120.847399 322 7981ft 108kts
29-Jul-20 10:42 35.922766 -120.870527 322 7981ft 108kts
29-Jul-20 10:43 35.946375 -120.893586 322 7981ft 108kts
29-Jul-20 10:44 35.970037 -120.916715 322 7981ft 108kts
29-Jul-20 10:45 35.993640 -120.939806 322 7981ft 108kts
29-Jul-20 10:46 36.017279 -120.962951 322 7981ft 108kts
29-Jul-20 10:47 36.040948 -120.986137 322 7981ft 108kts
29-Jul-20 10:48 36.064654 -121.009376 322 7981ft 108kts
29-Jul-20 10:49 36.088135 -121.032415 322 7982ft 107kts
29-Jul-20 10:50 36.111723 -121.055580 321 7984ft 107kts
29-Jul-20 10:51 36.135048 -121.078503 321 7985ft 107kts
29-Jul-20 10:52 36.158268 -121.101342 320 7986ft 106kts
29-Jul-20 10:53 36.181542 -121.124254 320 7987ft 106kts
29-Jul-20 10:54 36.204687 -121.147058 319 7988ft 106kts
29-Jul-20 10:55 36.227823 -121.169872 319 7989ft 106kts
29-Jul-20 10:56 36.251065 -121.192810 318 7990ft 107kts
29-Jul-20 10:57 36.274355 -121.215820 318 7990ft 107kts
29-Jul-20 10:58 36.297718 -121.238912 318 7990ft 107kts
29-Jul-20 10:59 36.321153 -121.262093 318 7990ft 107kts
29-Jul-20 11:00 36.344526 -121.285230 318 7990ft 107kts
29-Jul-20 11:01 36.367815 -121.308301 318 7990ft 107kts
29-Jul-20 11:02 36.391241 -121.331524 318 7990ft 107kts
29-Jul-20 11:03 36.414557 -121.354660 318 7990ft 107kts
29-Jul-20 11:04 36.432512 -121.383573 302 7990ft 105kts
29-Jul-20 11:05 36.449454 -121.413851 303 7889ft 113kts
29-Jul-20 11:06 36.468012 -121.447892 303 7391ft 122kts
29-Jul-20 11:07 36.486795 -121.483044 303 6886ft 122kts
29-Jul-20 11:08 36.505562 -121.518726 303 6381ft 124kts
29-Jul-20 11:09 36.524559 -121.554068 303 5984ft 117kts
29-Jul-20 11:10 36.541606 -121.585392 302 5983ft 105kts
29-Jul-20 11:11 36.557845 -121.614962 302 5984ft 102kts
29-Jul-20 11:12 36.573951 -121.644251 302 5983ft 102kts
29-Jul-20 11:13 36.587143 -121.679043 292 5598ft 120kts
29-Jul-20 11:14 36.600357 -121.718174 292 5101ft 124kts
29-Jul-20 11:15 36.613594 -121.758017 292 4600ft 124kts
29-Jul-20 11:17 36.626697 -121.797922 292 4100ft 125kts
29-Jul-20 11:18 36.638986 -121.835549 292 3986ft 109kts
29-Jul-20 11:19 36.650295 -121.869763 292 3988ft 105kts
29-Jul-20 11:20 36.661526 -121.903475 292 3990ft 105kts
29-Jul-20 11:21 36.672929 -121.937566 292 3849ft 115kts
29-Jul-20 11:22 36.685538 -121.975452 295 3504ft 119kts
29-Jul-20 11:23 36.699544 -122.012493 294 3278ft 113kts
29-Jul-20 11:24 36.710838 -122.047051 292 2991ft 102kts
29-Jul-20 11:25 36.721903 -122.081215 290 2990ft 108kts
29-Jul-20 11:26 36.701155 -122.090048 144 2989ft 117kts
29-Jul-20 11:27 36.675539 -122.064340 142 2990ft 118kts
29-Jul-20 11:28 36.650965 -122.037271 115 2986ft 119kts
29-Jul-20 11:29 36.638553 -121.997761 113 2559ft 122kts
29-Jul-20 11:30 36.625587 -121.959049 113 1923ft 121kts
29-Jul-20 11:31 36.613866 -121.924293 113 1317ft 91kts
29-Jul-20 11:32 36.605227 -121.898231 111 909ft 76kts
29-Jul-20 11:32 36.598655 -121.878440 112 536ft 70kts
29-Jul-20 11:34 36.589843 -121.852713 111 170ft 58kts
29-Jul-20 11:34 36.587450 -121.847645 212 186ft 0kts
29-Jul-20 11:35 36.587632 -121.848736 293 182ft 20kts
29-Jul-20 11:37 36.589054 -121.857388 254 160ft 18kts
29-Jul-20 11:37 36.589016 -121.858728 122 159ft 0kts
29-Jul-20 11:38 36.589016 -121.858728 122 159ft 0kts

Navigation Log

Ident Type
Flight plan parsing failed, navigation log unavailable